Time;durP1;ratioP1;P1;durP2;ratioP2;P2;SDS_P1;SDS_P2;PMS_P1;PMS_P2;Temp;Humidity;BMP_temperature;BMP_pressure;BME280_temperature;BME280_humidity;BME280_pressure;Samples;Min_cycle;Max_cycle;Signal;HPM_P1;HPM_P2
2022/05/30 00:00:49;;;;;;;0.40;0.40;;;7.80;99.90;;;;;;4978591;28;20062;-68
2022/05/30 00:03:15;;;;;;;0.50;0.50;;;7.70;99.90;;;;;;4979034;28;20070;-69
2022/05/30 00:05:46;;;;;;;0.40;0.40;;;7.60;99.90;;;;;;4972883;28;20047;-68
2022/05/30 00:08:14;;;;;;;0.60;0.60;;;7.60;99.90;;;;;;4942243;29;20122;-68
2022/05/30 00:10:39;;;;;;;0.40;0.40;;;7.50;99.90;;;;;;4959086;29;20039;-69
2022/05/30 00:13:06;;;;;;;0.40;0.40;;;7.40;99.90;;;;;;4959112;29;20061;-68
2022/05/30 00:15:32;;;;;;;0.47;0.47;;;7.40;99.90;;;;;;4959301;29;20047;-69
2022/05/30 00:17:58;;;;;;;0.40;0.40;;;7.30;99.90;;;;;;4959296;29;20051;-68
2022/05/30 00:20:24;;;;;;;0.40;0.40;;;7.30;99.90;;;;;;4959063;28;20388;-68
2022/05/30 00:22:51;;;;;;;0.80;0.55;;;7.30;99.90;;;;;;4959035;29;20061;-69
2022/05/30 00:25:17;;;;;;;0.40;0.40;;;7.30;99.90;;;;;;4958739;29;20058;-68
2022/05/30 00:27:43;;;;;;;0.68;0.68;;;7.30;99.90;;;;;;4958827;29;20058;-68
2022/05/30 00:30:10;;;;;;;1.05;1.05;;;7.30;99.90;;;;;;4958621;28;20092;-69
2022/05/30 00:32:36;;;;;;;0.50;0.50;;;7.30;99.90;;;;;;4958263;29;20113;-68
2022/05/30 00:35:03;;;;;;;0.50;0.50;;;7.30;99.90;;;;;;4962419;28;20074;-69
2022/05/30 00:37:28;;;;;;;0.50;0.50;;;7.30;99.90;;;;;;4960877;28;20130;-69
2022/05/30 00:39:54;;;;;;;0.63;0.60;;;7.30;99.90;;;;;;4977846;28;20122;-68
2022/05/30 00:42:23;;;;;;;0.50;0.50;;;7.30;99.90;;;;;;4978109;28;20486;-68
2022/05/30 00:44:49;;;;;;;0.50;0.50;;;7.30;99.90;;;;;;4977882;28;20047;-68
2022/05/30 00:47:16;;;;;;;0.50;0.50;;;7.20;99.90;;;;;;4977870;28;20058;-69
2022/05/30 00:49:44;;;;;;;0.50;0.50;;;7.20;99.90;;;;;;4959969;28;20050;-68
2022/05/30 00:52:16;;;;;;;0.50;0.50;;;7.20;99.90;;;;;;4977479;28;20054;-69
2022/05/30 00:55:00;;;;;;;0.40;0.40;;;7.10;99.90;;;;;;4977584;28;20050;-68
2022/05/30 00:57:29;;;;;;;0.40;0.40;;;7.00;99.90;;;;;;4978066;28;20051;-68
2022/05/30 01:00:09;;;;;;;0.60;0.60;;;7.00;99.90;;;;;;4977780;28;20050;-68
2022/05/30 01:02:37;;;;;;;0.50;0.50;;;6.90;99.90;;;;;;4977840;28;20116;-69
2022/05/30 01:07:49;;;;;;;0.50;0.50;;;6.90;99.90;;;;;;4972035;28;20051;-68
2022/05/30 01:10:19;;;;;;;0.40;0.40;;;6.80;99.90;;;;;;4977414;28;20061;-69
2022/05/30 01:12:49;;;;;;;0.60;0.60;;;6.80;99.90;;;;;;4977322;28;20452;-69
2022/05/30 01:15:17;;;;;;;0.50;0.50;;;7.10;99.90;;;;;;4977199;28;20050;-69
2022/05/30 01:17:51;;;;;;;1.25;1.15;;;6.80;99.90;;;;;;4977564;28;20456;-68
2022/05/30 01:20:25;;;;;;;0.50;0.50;;;6.80;99.90;;;;;;4977449;28;20371;-68
2022/05/30 01:23:32;;;;;;;0.50;0.50;;;6.80;99.90;;;;;;4976837;28;20047;-68
2022/05/30 01:26:14;;;;;;;0.50;0.50;;;6.90;99.90;;;;;;4977048;28;20054;-68
2022/05/30 01:28:45;;;;;;;0.75;0.75;;;7.00;99.90;;;;;;4976707;28;20054;-69
2022/05/30 01:31:12;;;;;;;0.50;0.50;;;7.10;99.90;;;;;;4977397;28;20050;-68
2022/05/30 01:33:38;;;;;;;0.45;0.45;;;7.10;99.90;;;;;;4975342;28;20043;-68
2022/05/30 01:36:04;;;;;;;0.73;0.73;;;7.20;99.90;;;;;;4977002;28;20061;-68
2022/05/30 01:38:29;;;;;;;0.50;0.50;;;7.30;99.90;;;;;;4960451;28;20054;-69
2022/05/30 01:40:56;;;;;;;0.50;0.50;;;7.30;99.90;;;;;;4976810;28;20055;-69
2022/05/30 01:43:22;;;;;;;0.45;0.45;;;7.30;99.90;;;;;;4976799;28;20053;-69
2022/05/30 01:45:48;;;;;;;0.50;0.50;;;7.40;99.90;;;;;;4976856;28;20187;-69
2022/05/30 01:48:14;;;;;;;0.47;0.47;;;7.40;99.90;;;;;;4974748;28;20133;-68
2022/05/30 01:50:40;;;;;;;0.50;0.50;;;7.70;99.90;;;;;;4970780;28;20422;-69
2022/05/30 01:53:05;;;;;;;0.40;0.40;;;7.40;99.90;;;;;;4976598;28;20043;-68
2022/05/30 01:55:31;;;;;;;0.60;0.60;;;7.40;99.90;;;;;;4976935;28;20125;-68
2022/05/30 01:57:56;;;;;;;0.50;0.50;;;7.40;99.90;;;;;;4959326;28;20043;-68
2022/05/30 02:00:22;;;;;;;0.50;0.50;;;7.40;99.90;;;;;;4976756;28;20054;-68
2022/05/30 02:02:49;;;;;;;0.50;0.50;;;7.90;99.90;;;;;;4976417;28;20047;-69
2022/05/30 02:05:15;;;;;;;0.50;0.50;;;7.30;99.90;;;;;;4960333;28;20058;-68
2022/05/30 02:07:41;;;;;;;0.50;0.50;;;7.20;99.90;;;;;;4957075;29;20047;-68
2022/05/30 02:10:07;;;;;;;0.50;0.50;;;7.20;99.90;;;;;;4957181;29;20097;-69
2022/05/30 02:12:33;;;;;;;0.50;0.50;;;7.10;99.90;;;;;;4957210;29;20047;-68
2022/05/30 02:14:59;;;;;;;0.50;0.50;;;7.10;99.90;;;;;;4957068;29;20066;-69
2022/05/30 02:17:24;;;;;;;0.50;0.50;;;7.00;99.90;;;;;;4957142;29;20095;-69
2022/05/30 02:19:50;;;;;;;0.50;0.50;;;6.90;99.90;;;;;;4956757;28;20098;-68
2022/05/30 02:22:19;;;;;;;0.50;0.50;;;6.80;99.90;;;;;;4957057;29;20133;-69
2022/05/30 02:24:48;;;;;;;0.65;0.50;;;6.80;99.90;;;;;;4973285;28;20046;-69
2022/05/30 02:27:15;;;;;;;0.50;0.50;;;6.70;99.90;;;;;;4959879;28;20058;-69
2022/05/30 02:29:40;;;;;;;0.60;0.60;;;6.70;99.90;;;;;;4976376;28;20042;-69
2022/05/30 02:32:07;;;;;;;0.70;0.70;;;6.60;99.90;;;;;;4976080;28;20054;-69
2022/05/30 02:37:17;;;;;;;0.50;0.50;;;6.40;99.90;;;;;;4975907;28;20094;-68
2022/05/30 02:39:42;;;;;;;0.50;0.50;;;6.40;99.90;;;;;;4940978;29;20083;-69
2022/05/30 02:42:08;;;;;;;0.65;0.65;;;6.30;99.90;;;;;;4956995;29;20471;-69
2022/05/30 02:44:36;;;;;;;0.50;0.50;;;6.30;99.90;;;;;;4957006;29;20047;-68
2022/05/30 02:47:03;;;;;;;0.50;0.50;;;6.30;99.90;;;;;;4957030;29;20058;-68
2022/05/30 02:49:29;;;;;;;0.40;0.40;;;6.20;99.90;;;;;;4956743;29;20083;-68
2022/05/30 02:51:55;;;;;;;0.50;0.50;;;6.20;99.90;;;;;;4956638;29;20113;-68
2022/05/30 02:54:20;;;;;;;0.73;0.73;;;6.20;99.90;;;;;;4961381;28;20119;-69
2022/05/30 02:56:51;;;;;;;0.50;0.50;;;6.10;99.90;;;;;;4980555;28;20043;-68
2022/05/30 02:59:17;;;;;;;0.50;0.50;;;6.10;99.90;;;;;;4979731;28;20104;-68
2022/05/30 03:01:43;;;;;;;0.50;0.50;;;6.00;99.90;;;;;;4979673;28;20042;-68
2022/05/30 03:04:08;;;;;;;0.50;0.50;;;6.00;99.90;;;;;;4979723;28;20106;-68
2022/05/30 03:06:35;;;;;;;0.50;0.50;;;6.00;99.90;;;;;;4979631;28;20402;-68
2022/05/30 03:09:02;;;;;;;0.50;0.50;;;5.90;99.90;;;;;;4967233;28;20384;-68
2022/05/30 03:11:27;;;;;;;0.63;0.63;;;5.90;99.90;;;;;;4960250;29;20122;-69
2022/05/30 03:13:53;;;;;;;0.50;0.50;;;5.80;99.90;;;;;;4960115;29;20094;-68
2022/05/30 03:16:19;;;;;;;0.50;0.50;;;5.80;99.90;;;;;;4959965;29;20467;-69
2022/05/30 03:18:44;;;;;;;0.95;0.88;;;5.80;99.90;;;;;;4926715;29;20447;-69
2022/05/30 03:21:11;;;;;;;0.50;0.50;;;5.70;99.90;;;;;;4960022;29;20138;-69
2022/05/30 03:23:37;;;;;;;0.50;0.50;;;5.70;99.90;;;;;;4970753;28;20109;-69
2022/05/30 03:26:03;;;;;;;0.75;0.70;;;5.70;99.90;;;;;;4978870;28;20472;-68
2022/05/30 03:28:31;;;;;;;0.50;0.50;;;5.70;99.90;;;;;;4979160;28;20098;-67
2022/05/30 03:30:57;;;;;;;0.50;0.50;;;5.70;99.90;;;;;;4979473;28;20086;-69
2022/05/30 03:33:23;;;;;;;0.47;0.47;;;5.80;99.90;;;;;;4979083;28;20053;-68
2022/05/30 03:35:48;;;;;;;0.50;0.50;;;5.80;99.90;;;;;;4979149;28;20038;-69
2022/05/30 03:38:14;;;;;;;0.50;0.50;;;5.90;99.90;;;;;;4972923;28;20118;-68
2022/05/30 03:40:39;;;;;;;0.40;0.40;;;5.90;99.90;;;;;;4959567;28;20055;-68
2022/05/30 03:43:08;;;;;;;1.05;0.93;;;6.00;99.90;;;;;;4959191;29;20352;-69
2022/05/30 03:45:36;;;;;;;0.57;0.57;;;6.10;99.90;;;;;;4959929;29;20087;-68
2022/05/30 03:48:02;;;;;;;0.40;0.40;;;6.30;99.90;;;;;;4959541;29;20128;-67
2022/05/30 03:50:28;;;;;;;0.52;0.52;;;6.20;99.90;;;;;;4959509;29;20079;-68
2022/05/30 03:52:53;;;;;;;0.50;0.50;;;6.30;99.90;;;;;;4959738;29;20047;-69
2022/05/30 03:55:22;;;;;;;0.50;0.50;;;6.40;99.90;;;;;;4967451;28;20043;-68
2022/05/30 03:57:47;;;;;;;0.82;0.60;;;6.50;99.90;;;;;;4978524;28;20113;-68
2022/05/30 04:00:17;;;;;;;1.75;0.82;;;6.60;99.90;;;;;;4978507;28;20051;-68
2022/05/30 04:02:43;;;;;;;0.45;0.45;;;6.60;99.90;;;;;;4978841;28;20042;-69
2022/05/30 04:05:09;;;;;;;0.60;0.60;;;6.70;99.90;;;;;;4978597;28;20437;-68
2022/05/30 04:07:36;;;;;;;0.50;0.50;;;6.80;99.90;;;;;;4977925;28;20109;-69
2022/05/30 04:10:03;;;;;;;0.60;0.60;;;6.80;99.90;;;;;;4973517;28;20047;-68
2022/05/30 04:12:28;;;;;;;0.85;0.63;;;6.90;99.90;;;;;;4978275;28;20067;-68
2022/05/30 04:14:55;;;;;;;1.02;0.93;;;7.00;99.90;;;;;;4961252;28;20047;-68
2022/05/30 04:17:22;;;;;;;0.57;0.57;;;7.00;99.90;;;;;;4978345;28;20121;-68
2022/05/30 04:19:48;;;;;;;0.50;0.50;;;7.10;99.90;;;;;;4978283;28;20154;-68
2022/05/30 04:22:14;;;;;;;0.40;0.40;;;7.20;99.90;;;;;;4978531;28;20460;-68
2022/05/30 04:24:39;;;;;;;0.40;0.40;;;7.30;99.90;;;;;;4977848;28;20113;-68
2022/05/30 04:27:05;;;;;;;0.40;0.40;;;7.30;99.90;;;;;;4977941;28;20146;-69
2022/05/30 04:29:31;;;;;;;0.60;0.60;;;7.40;99.90;;;;;;4961088;28;20138;-69
2022/05/30 04:31:57;;;;;;;0.50;0.50;;;7.50;99.90;;;;;;4968873;28;20134;-68
2022/05/30 04:34:22;;;;;;;0.40;0.40;;;7.50;99.90;;;;;;4983717;28;20038;-69
2022/05/30 04:36:48;;;;;;;0.40;0.40;;;7.60;99.90;;;;;;4997262;28;20046;-68
2022/05/30 04:39:14;;;;;;;0.50;0.50;;;7.70;99.90;;;;;;4985153;28;20097;-67
2022/05/30 04:41:40;;;;;;;0.80;0.50;;;7.80;99.90;;;;;;4978172;28;20353;-68
2022/05/30 04:44:05;;;;;;;0.65;0.65;;;7.80;99.90;;;;;;4977187;28;20065;-70
2022/05/30 04:46:31;;;;;;;0.50;0.50;;;8.10;99.90;;;;;;4977930;28;20399;-68
2022/05/30 04:48:57;;;;;;;0.82;0.70;;;8.00;99.90;;;;;;4977703;28;20411;-69
2022/05/30 04:51:23;;;;;;;0.50;0.50;;;8.00;99.90;;;;;;4989736;28;20085;-69
2022/05/30 04:53:49;;;;;;;0.47;0.47;;;8.10;99.90;;;;;;4996826;28;20432;-68
2022/05/30 04:56:17;;;;;;;0.40;0.40;;;8.10;99.90;;;;;;4994481;28;21495;-69
2022/05/30 04:58:43;;;;;;;0.40;0.40;;;8.20;99.90;;;;;;4983647;28;20046;-68
2022/05/30 05:01:10;;;;;;;0.75;0.75;;;8.50;99.90;;;;;;4996910;28;20113;-68
2022/05/30 05:03:37;;;;;;;0.50;0.50;;;8.40;99.90;;;;;;4983698;28;20046;-69
2022/05/30 05:06:07;;;;;;;0.50;0.50;;;8.40;99.90;;;;;;4977580;28;20198;-70
2022/05/30 05:08:51;;;;;;;1.67;0.88;;;8.50;99.90;;;;;;4977548;28;20058;-69
2022/05/30 05:11:21;;;;;;;0.40;0.40;;;8.50;99.90;;;;;;4976635;28;20043;-68
2022/05/30 05:13:46;;;;;;;0.95;0.95;;;8.50;99.90;;;;;;4977453;28;20039;-69
2022/05/30 05:16:13;;;;;;;0.40;0.40;;;8.70;99.90;;;;;;4977344;28;20348;-69
2022/05/30 05:18:38;;;;;;;0.50;0.50;;;8.80;99.90;;;;;;4976762;28;20042;-69
2022/05/30 05:21:04;;;;;;;0.57;0.55;;;8.90;99.90;;;;;;4977341;28;20054;-69
2022/05/30 05:23:30;;;;;;;0.60;0.60;;;8.90;99.90;;;;;;4977154;28;20050;-68
2022/05/30 05:25:56;;;;;;;1.33;0.93;;;9.00;99.90;;;;;;4959599;28;20460;-68
2022/05/30 05:28:22;;;;;;;0.40;0.40;;;9.10;99.90;;;;;;4957666;29;20055;-68
2022/05/30 05:30:47;;;;;;;0.40;0.40;;;9.20;99.90;;;;;;4962115;28;20129;-69
2022/05/30 05:33:13;;;;;;;0.47;0.47;;;9.30;99.90;;;;;;4969241;28;20474;-69
2022/05/30 05:35:43;;;;;;;0.40;0.40;;;9.40;99.90;;;;;;4975437;28;20366;-70
2022/05/30 05:38:09;;;;;;;0.40;0.40;;;9.50;99.90;;;;;;4976164;28;20059;-69
2022/05/30 05:40:42;;;;;;;0.50;0.50;;;9.70;99.90;;;;;;4962757;28;20447;-69
2022/05/30 05:43:09;;;;;;;0.50;0.50;;;9.90;99.90;;;;;;4976177;28;20071;-69
2022/05/30 05:45:40;;;;;;;0.50;0.50;;;10.00;99.90;;;;;;4967570;28;20055;-69
2022/05/30 05:48:07;;;;;;;0.85;0.65;;;10.10;99.90;;;;;;4971553;28;20046;-69
2022/05/30 05:50:33;;;;;;;0.40;0.40;;;10.20;99.90;;;;;;4974997;28;20046;-69
2022/05/30 05:52:59;;;;;;;0.50;0.50;;;10.20;99.90;;;;;;4975687;28;20050;-69
2022/05/30 05:55:26;;;;;;;0.40;0.40;;;10.30;99.90;;;;;;4973808;28;20061;-69
2022/05/30 05:57:51;;;;;;;1.95;1.25;;;11.30;99.90;;;;;;4975489;28;20150;-69
2022/05/30 06:00:18;;;;;;;0.40;0.40;;;13.00;99.90;;;;;;4975475;28;20571;-69
2022/05/30 06:02:43;;;;;;;0.40;0.40;;;14.70;99.90;;;;;;4975779;28;20047;-69
2022/05/30 06:05:09;;;;;;;0.40;0.40;;;16.30;99.90;;;;;;4975774;28;20492;-69
2022/05/30 06:07:37;;;;;;;0.40;0.40;;;17.70;99.90;;;;;;4976066;28;20074;-69
2022/05/30 06:10:05;;;;;;;0.40;0.40;;;18.80;99.90;;;;;;4975787;28;20345;-69
2022/05/30 06:12:34;;;;;;;0.40;0.40;;;19.20;99.90;;;;;;4975994;28;20062;-70
2022/05/30 06:14:59;;;;;;;0.60;0.60;;;19.60;99.90;;;;;;4975770;28;20050;-70
2022/05/30 06:17:25;;;;;;;0.30;0.30;;;20.10;99.90;;;;;;4975768;28;20055;-69
2022/05/30 06:19:50;;;;;;;0.30;0.30;;;19.40;99.00;;;;;;4972438;28;20066;-70
2022/05/30 06:22:16;;;;;;;0.45;0.45;;;18.80;99.90;;;;;;4964295;28;20134;-70
2022/05/30 06:24:42;;;;;;;0.30;0.30;;;18.30;99.90;;;;;;4963432;28;20133;-70
2022/05/30 06:27:09;;;;;;;0.40;0.30;;;17.50;99.90;;;;;;4974624;28;20062;-69
2022/05/30 06:29:35;;;;;;;0.30;0.30;;;17.10;99.90;;;;;;4973775;28;20077;-71
2022/05/30 06:32:00;;;;;;;0.25;0.25;;;16.60;99.90;;;;;;4974698;28;20054;-70
2022/05/30 06:34:26;;;;;;;0.20;0.20;;;16.10;99.90;;;;;;4971924;28;20056;-70
2022/05/30 06:36:51;;;;;;;0.40;0.40;;;15.50;99.90;;;;;;4956553;29;20044;-69
2022/05/30 06:39:17;;;;;;;0.30;0.30;;;15.50;99.90;;;;;;4956425;29;20047;-71
2022/05/30 06:41:44;;;;;;;0.30;0.30;;;15.50;99.90;;;;;;4956177;29;20043;-70
2022/05/30 06:44:10;;;;;;;0.30;0.30;;;15.70;99.90;;;;;;4956411;29;20075;-70
2022/05/30 06:46:37;;;;;;;0.47;0.47;;;16.00;99.90;;;;;;4959481;28;20130;-70
2022/05/30 06:49:05;;;;;;;0.30;0.30;;;16.30;99.90;;;;;;4966960;28;20051;-70
2022/05/30 06:51:33;;;;;;;0.30;0.30;;;17.40;99.90;;;;;;4954689;29;20540;-70
2022/05/30 06:53:59;;;;;;;0.20;0.20;;;19.00;99.90;;;;;;4955394;28;20355;-71
2022/05/30 06:56:31;;;;;;;0.60;0.60;;;19.20;99.90;;;;;;4952663;29;20379;-70
2022/05/30 06:58:57;;;;;;;0.20;0.20;;;20.00;99.90;;;;;;4956121;29;20043;-70
2022/05/30 07:01:26;;;;;;;2.10;0.68;;;19.60;99.00;;;;;;4953252;29;20114;-70
2022/05/30 07:03:52;;;;;;;0.30;0.30;;;19.50;99.90;;;;;;4956093;29;20035;-70
2022/05/30 07:06:20;;;;;;;0.20;0.20;;;19.00;98.10;;;;;;4956139;29;20057;-70
2022/05/30 07:08:46;;;;;;;5.32;0.30;;;19.10;99.90;;;;;;4966458;28;20397;-70
2022/05/30 07:11:17;;;;;;;0.20;0.20;;;20.10;99.90;;;;;;4955872;29;20051;-70
2022/05/30 07:13:44;;;;;;;0.20;0.20;;;21.10;98.70;;;;;;4956111;29;20058;-70
2022/05/30 07:16:10;;;;;;;0.20;0.20;;;20.00;96.90;;;;;;5005983;23;20082;-69
2022/05/30 07:18:37;;;;;;;0.20;0.20;;;19.10;98.10;;;;;;4960673;28;20077;-68
2022/05/30 07:21:05;;;;;;;0.20;0.20;;;18.10;98.10;;;;;;4976270;28;20050;-69
2022/05/30 07:23:33;;;;;;;0.22;0.20;;;17.30;99.70;;;;;;4993204;28;20049;-69
2022/05/30 07:26:00;;;;;;;0.20;0.20;;;16.70;99.90;;;;;;4976118;28;20081;-69
2022/05/30 07:28:29;;;;;;;0.20;0.20;;;16.20;99.90;;;;;;4974951;28;20058;-69
2022/05/30 07:30:56;;;;;;;0.20;0.20;;;15.50;99.90;;;;;;4976162;28;20050;-69
2022/05/30 07:33:21;;;;;;;0.30;0.30;;;15.20;99.90;;;;;;4976544;28;20081;-68
2022/05/30 07:35:47;;;;;;;0.30;0.30;;;14.90;99.90;;;;;;4993800;28;20039;-68
2022/05/30 07:38:12;;;;;;;0.57;0.57;;;14.80;99.90;;;;;;4964626;28;20069;-69
2022/05/30 07:40:38;;;;;;;0.38;0.38;;;14.80;99.90;;;;;;4975326;28;20047;-68
2022/05/30 07:43:03;;;;;;;0.30;0.30;;;15.20;99.90;;;;;;4960272;28;20125;-68
2022/05/30 07:45:29;;;;;;;0.40;0.40;;;16.10;99.90;;;;;;4961162;28;20101;-68
2022/05/30 07:47:55;;;;;;;0.30;0.30;;;16.00;99.90;;;;;;4978919;28;20047;-68
2022/05/30 07:50:21;;;;;;;0.20;0.20;;;15.90;99.90;;;;;;4960682;28;20062;-68
2022/05/30 07:52:46;;;;;;;0.30;0.30;;;16.90;99.90;;;;;;4960170;28;20093;-68
2022/05/30 07:55:12;;;;;;;0.30;0.30;;;17.50;99.90;;;;;;4960138;28;20134;-68
2022/05/30 07:57:53;;;;;;;0.20;0.20;;;17.50;99.90;;;;;;4962422;28;20109;-68
2022/05/30 08:00:22;;;;;;;0.22;0.22;;;16.60;99.90;;;;;;4979647;28;20054;-67
2022/05/30 08:02:48;;;;;;;0.20;0.20;;;15.60;99.90;;;;;;4997115;28;20121;-69
2022/05/30 08:05:15;;;;;;;0.70;0.55;;;15.00;99.90;;;;;;4979833;28;20058;-68
2022/05/30 08:07:43;;;;;;;0.30;0.30;;;14.70;99.90;;;;;;4976860;28;20072;-68
2022/05/30 08:10:09;;;;;;;0.30;0.30;;;14.40;99.90;;;;;;4977547;28;20043;-67
2022/05/30 08:12:35;;;;;;;0.30;0.30;;;14.10;99.90;;;;;;4960707;28;20042;-68
2022/05/30 08:15:01;;;;;;;0.30;0.30;;;14.00;99.90;;;;;;4960266;28;20114;-67
2022/05/30 08:17:26;;;;;;;0.30;0.30;;;13.90;99.90;;;;;;4977337;28;20070;-67
2022/05/30 08:19:52;;;;;;;0.30;0.30;;;13.80;99.90;;;;;;4960195;28;20462;-69
2022/05/30 08:22:18;;;;;;;0.30;0.30;;;13.90;99.90;;;;;;4996479;28;20386;-69
2022/05/30 08:24:52;;;;;;;0.30;0.30;;;13.90;99.90;;;;;;4993086;28;20035;-68
2022/05/30 08:27:18;;;;;;;0.43;0.43;;;14.20;99.90;;;;;;4960436;28;20053;-69
2022/05/30 08:29:44;;;;;;;0.40;0.40;;;14.40;99.90;;;;;;4961279;28;20074;-70
2022/05/30 08:32:09;;;;;;;1.02;0.55;;;14.70;99.90;;;;;;4961150;28;20043;-69
2022/05/30 08:34:36;;;;;;;0.30;0.30;;;14.90;99.90;;;;;;4946968;28;20368;-70
2022/05/30 08:37:03;;;;;;;0.30;0.30;;;14.90;99.90;;;;;;4961340;28;20039;-70
2022/05/30 08:42:12;;;;;;;0.30;0.30;;;15.40;99.90;;;;;;4976837;28;20141;-70
2022/05/30 08:44:38;;;;;;;0.40;0.40;;;15.40;99.90;;;;;;4978288;28;20121;-71
2022/05/30 08:47:40;;;;;;;0.30;0.30;;;15.70;99.90;;;;;;4979289;28;20046;-70
2022/05/30 08:50:13;;;;;;;0.30;0.30;;;15.90;99.90;;;;;;4964998;28;20062;-70
2022/05/30 08:53:10;;;;;;;0.30;0.30;;;15.60;99.90;;;;;;4994448;28;20490;-70
2022/05/30 08:55:57;;;;;;;0.40;0.40;;;15.40;99.90;;;;;;4986319;28;20105;-70
2022/05/30 08:58:53;;;;;;;0.30;0.30;;;15.10;99.90;;;;;;4959407;28;20050;-70
2022/05/30 09:01:32;;;;;;;0.30;0.30;;;15.00;99.90;;;;;;4959175;28;20081;-70
2022/05/30 09:04:28;;;;;;;0.30;0.30;;;14.70;99.90;;;;;;4958957;28;20047;-70
2022/05/30 09:07:01;;;;;;;0.40;0.40;;;14.50;99.90;;;;;;4978016;28;20042;-70
2022/05/30 09:09:36;;;;;;;0.60;0.60;;;14.20;99.90;;;;;;4978581;28;20066;-70
2022/05/30 09:12:38;;;;;;;0.30;0.30;;;14.00;99.90;;;;;;4977839;28;20054;-70
2022/05/30 09:15:14;;;;;;;0.30;0.30;;;13.60;99.90;;;;;;4949944;28;20074;-70
2022/05/30 09:17:44;;;;;;;0.40;0.40;;;13.40;99.90;;;;;;4958772;28;20078;-68
2022/05/30 09:20:15;;;;;;;0.40;0.40;;;13.30;99.90;;;;;;4975940;28;20058;-69
2022/05/30 09:22:41;;;;;;;0.40;0.40;;;13.30;99.90;;;;;;4975701;28;20141;-69
2022/05/30 09:27:58;;;;;;;0.30;0.30;;;13.30;99.90;;;;;;4994830;28;20102;-70
2022/05/30 09:30:31;;;;;;;0.38;0.38;;;13.20;99.90;;;;;;4978504;28;20085;-70
2022/05/30 09:33:27;;;;;;;0.40;0.40;;;13.30;99.90;;;;;;4978178;28;20143;-70
2022/05/30 09:36:27;;;;;;;0.30;0.30;;;13.30;99.90;;;;;;4959083;28;20057;-70
2022/05/30 09:39:14;;;;;;;0.35;0.35;;;13.40;99.90;;;;;;4975994;28;20047;-69
2022/05/30 09:41:40;;;;;;;0.30;0.30;;;13.50;99.90;;;;;;4975711;28;20039;-69
2022/05/30 09:44:20;;;;;;;0.30;0.30;;;13.30;99.90;;;;;;4975824;28;20054;-70
2022/05/30 09:47:04;;;;;;;0.30;0.30;;;13.60;99.90;;;;;;4958097;28;20059;-69
2022/05/30 09:49:36;;;;;;;0.40;0.40;;;13.70;99.90;;;;;;4959021;28;20066;-69
2022/05/30 09:52:19;;;;;;;0.52;0.52;;;13.80;99.90;;;;;;4977931;28;20057;-69
2022/05/30 09:54:45;;;;;;;0.30;0.30;;;13.90;99.90;;;;;;4964300;28;20356;-70
2022/05/30 09:57:24;;;;;;;0.30;0.30;;;14.20;99.90;;;;;;4977593;28;20062;-70
2022/05/30 09:59:52;;;;;;;0.40;0.40;;;14.30;99.90;;;;;;4958694;28;20058;-69
2022/05/30 10:02:31;;;;;;;0.30;0.30;;;14.50;99.90;;;;;;4958869;28;20039;-69
2022/05/30 10:05:14;;;;;;;0.35;0.35;;;14.60;99.90;;;;;;4972671;28;20070;-69
2022/05/30 10:08:05;;;;;;;1.42;1.35;;;14.60;99.90;;;;;;4994282;28;20394;-70
2022/05/30 10:10:38;;;;;;;0.30;0.30;;;14.90;99.90;;;;;;4977152;28;20050;-69
2022/05/30 10:13:05;;;;;;;;;;;14.90;99.90;;;;;;4958507;28;20051;-69
2022/05/30 10:15:34;;;;;;;0.30;0.30;;;15.00;99.90;;;;;;4974661;28;19985;-69
2022/05/30 10:18:30;;;;;;;0.40;0.40;;;15.10;99.90;;;;;;4958239;28;20054;-70
2022/05/30 10:21:22;;;;;;;0.40;0.40;;;15.20;99.90;;;;;;4906652;28;20056;-69
2022/05/30 10:30:07;;;;;;;0.28;0.28;;;15.60;99.90;;;;;;4958257;28;20055;-70
2022/05/30 10:32:46;;;;;;;;;;;15.90;99.90;;;;;;4970622;28;20042;-70
2022/05/30 10:35:21;;;;;;;0.30;0.30;;;16.10;99.90;;;;;;4976898;28;19969;-70
2022/05/30 10:38:41;;;;;;;0.30;0.30;;;16.40;99.90;;;;;;4977882;28;20042;-72
2022/05/30 10:41:35;;;;;;;0.30;0.30;;;16.50;99.90;;;;;;4971883;28;20392;-70
2022/05/30 10:44:06;;;;;;;0.30;0.30;;;16.50;99.90;;;;;;4957775;28;20379;-69
2022/05/30 10:46:52;;;;;;;0.30;0.30;;;16.70;99.90;;;;;;4980536;28;20081;-69
2022/05/30 10:49:22;;;;;;;0.20;0.20;;;16.90;99.90;;;;;;4961085;28;20050;-71
2022/05/30 10:52:08;;;;;;;0.25;0.25;;;17.20;99.90;;;;;;4976884;28;20061;-70
2022/05/30 10:54:45;;;;;;;0.77;0.77;;;17.30;99.90;;;;;;4976893;28;20054;-70
2022/05/30 10:57:55;;;;;;;0.45;0.45;;;17.40;99.90;;;;;;4964956;28;20415;-70
2022/05/30 11:00:28;;;;;;;0.30;0.30;;;17.50;99.90;;;;;;4957712;28;20051;-70
2022/05/30 11:03:06;;;;;;;0.25;0.25;;;17.60;99.90;;;;;;4987619;28;20133;-70
2022/05/30 11:05:49;;;;;;;0.20;0.20;;;17.40;99.90;;;;;;4977996;28;20081;-69
2022/05/30 11:08:25;;;;;;;0.20;0.20;;;17.50;99.90;;;;;;4958025;28;20159;-70
2022/05/30 11:11:15;;;;;;;0.20;0.20;;;17.20;99.90;;;;;;4958400;28;20065;-70
2022/05/30 11:13:50;;;;;;;0.30;0.30;;;16.90;99.90;;;;;;4957872;28;20180;-70
2022/05/30 11:16:40;;;;;;;0.30;0.30;;;16.60;99.90;;;;;;4977299;28;20141;-70
2022/05/30 11:19:24;;;;;;;0.20;0.20;;;16.10;99.90;;;;;;4992601;28;20060;-69
2022/05/30 11:22:05;;;;;;;0.20;0.20;;;15.40;99.90;;;;;;4982498;28;20042;-69
2022/05/30 11:24:32;;;;;;;0.30;0.30;;;15.10;99.90;;;;;;4934527;29;20066;-70
2022/05/30 11:27:06;;;;;;;0.30;0.30;;;14.70;99.90;;;;;;4921413;29;20105;-70
2022/05/30 11:29:34;;;;;;;0.30;0.30;;;14.50;99.90;;;;;;4922096;29;20150;-70
2022/05/30 11:32:22;;;;;;;0.30;0.30;;;14.30;99.90;;;;;;4922251;29;20043;-69
2022/05/30 11:35:19;;;;;;;0.30;0.30;;;13.90;99.90;;;;;;4917022;29;20131;-70
2022/05/30 11:38:03;;;;;;;0.90;0.90;;;13.70;99.90;;;;;;4888607;29;20091;-70
2022/05/30 11:40:43;;;;;;;2.72;0.45;;;13.50;99.90;;;;;;4918987;29;20067;-70
2022/05/30 11:43:20;;;;;;;0.30;0.30;;;13.40;99.90;;;;;;4937366;29;20043;-70
2022/05/30 11:45:59;;;;;;;0.30;0.30;;;13.40;99.90;;;;;;4912900;29;20602;-71
2022/05/30 11:48:39;;;;;;;0.30;0.30;;;13.20;99.90;;;;;;4903122;29;20108;-70
2022/05/30 11:51:25;;;;;;;0.40;0.40;;;13.10;99.90;;;;;;4918691;29;20051;-70
2022/05/30 11:54:17;;;;;;;0.40;0.40;;;12.90;99.90;;;;;;4902575;29;20139;-72
2022/05/30 11:56:55;;;;;;;0.35;0.35;;;12.90;99.90;;;;;;4931706;29;20055;-70
2022/05/30 11:59:29;;;;;;;0.40;0.40;;;13.00;99.90;;;;;;4922090;29;20054;-70
2022/05/30 12:01:57;;;;;;;0.30;0.30;;;12.90;99.90;;;;;;4937530;29;20068;-70
2022/05/30 12:04:44;;;;;;;0.40;0.40;;;13.20;99.90;;;;;;4936927;29;20044;-70
2022/05/30 12:07:52;;;;;;;0.40;0.40;;;13.10;99.90;;;;;;4904283;29;20421;-70
2022/05/30 12:10:37;;;;;;;0.40;0.40;;;13.20;99.90;;;;;;4977546;28;20047;-70
2022/05/30 12:13:40;;;;;;;0.40;0.40;;;13.30;99.90;;;;;;4960409;28;20125;-69
2022/05/30 12:16:25;;;;;;;0.40;0.40;;;13.40;99.90;;;;;;4960854;28;20050;-69
2022/05/30 12:24:51;;;;;;;0.40;0.40;;;13.30;99.90;;;;;;4997165;28;20470;-69
2022/05/30 12:27:33;;;;;;;0.40;0.40;;;13.50;99.90;;;;;;4964055;28;20125;-70
2022/05/30 12:30:13;;;;;;;0.40;0.40;;;13.50;99.90;;;;;;4960086;28;20081;-70
2022/05/30 12:32:40;;;;;;;0.30;0.30;;;13.50;99.90;;;;;;4993731;28;20046;-69
2022/05/30 12:35:20;;;;;;;0.30;0.30;;;13.70;99.90;;;;;;4979436;28;20141;-70
2022/05/30 12:38:01;;;;;;;0.40;0.40;;;13.90;99.90;;;;;;4968267;28;20073;-70
2022/05/30 12:40:26;;;;;;;1.65;1.55;;;14.00;99.90;;;;;;4979464;28;20054;-70
2022/05/30 12:43:07;;;;;;;0.40;0.40;;;14.10;99.90;;;;;;4979974;28;20108;-70
2022/05/30 12:46:07;;;;;;;0.40;0.40;;;14.30;99.90;;;;;;4996452;28;20089;-70
2022/05/30 12:48:38;;;;;;;0.30;0.30;;;14.50;99.90;;;;;;4970999;28;20363;-70
2022/05/30 12:51:31;;;;;;;0.40;0.40;;;14.60;99.90;;;;;;4979763;28;20518;-70
2022/05/30 12:54:03;;;;;;;0.30;0.30;;;14.50;99.90;;;;;;4979503;28;20181;-69
2022/05/30 12:56:37;;;;;;;0.30;0.30;;;14.80;99.90;;;;;;4977497;28;20061;-69
2022/05/30 12:59:03;;;;;;;0.30;0.30;;;15.10;99.90;;;;;;4979759;28;20117;-70
2022/05/30 13:01:49;;;;;;;0.30;0.30;;;15.40;99.90;;;;;;4979337;28;20090;-69
2022/05/30 13:04:26;;;;;;;0.57;0.50;;;15.70;99.90;;;;;;4979001;28;20097;-69
2022/05/30 13:06:58;;;;;;;0.30;0.30;;;15.70;99.90;;;;;;4972292;28;20042;-70
2022/05/30 13:09:36;;;;;;;0.20;0.20;;;15.60;99.90;;;;;;4959787;28;20065;-69
2022/05/30 13:12:04;;;;;;;0.30;0.30;;;15.80;99.90;;;;;;4959588;28;20050;-69
2022/05/30 13:15:01;;;;;;;0.30;0.30;;;15.70;99.90;;;;;;4976320;28;20050;-69
2022/05/30 13:17:35;;;;;;;0.30;0.30;;;16.00;99.90;;;;;;4968703;28;20154;-70
2022/05/30 13:20:13;;;;;;;0.25;0.25;;;16.10;99.90;;;;;;4979176;28;20078;-69
2022/05/30 13:22:51;;;;;;;0.30;0.30;;;15.90;99.90;;;;;;4996140;28;20049;-69
2022/05/30 13:25:38;;;;;;;0.30;0.30;;;16.00;99.90;;;;;;4995971;28;20051;-69
2022/05/30 13:28:15;;;;;;;0.30;0.30;;;16.00;99.90;;;;;;4979701;28;20043;-70
2022/05/30 13:30:41;;;;;;;0.30;0.30;;;16.10;99.90;;;;;;4959186;28;20046;-69
2022/05/30 13:33:21;;;;;;;0.40;0.40;;;16.20;99.90;;;;;;4959521;28;20043;-69
2022/05/30 13:35:51;;;;;;;0.30;0.30;;;16.20;99.90;;;;;;4958984;28;20464;-70
2022/05/30 13:38:16;;;;;;;0.30;0.30;;;16.20;99.90;;;;;;4974450;28;20050;-70